sensor_id;sensor_type;location;lat;lon;timestamp;temperature;humidity
6764;DHT22;47432;48.760;9.178;2023-02-11T00:14:09;0.10;99.90
6764;DHT22;47432;48.760;9.178;2023-02-11T00:26:25;0.00;99.90
6764;DHT22;47432;48.760;9.178;2023-02-11T01:30:08;0.10;99.90
6764;DHT22;47432;48.760;9.178;2023-02-11T01:35:00;0.20;99.90
6764;DHT22;47432;48.760;9.178;2023-02-11T02:10:11;0.00;99.90
6764;DHT22;47432;48.760;9.178;2023-02-11T02:15:28;-0.20;99.90
6764;DHT22;47432;48.760;9.178;2023-02-11T02:21:01;-0.30;99.90
6764;DHT22;47432;48.760;9.178;2023-02-11T03:15:10;-0.10;99.90
6764;DHT22;47432;48.760;9.178;2023-02-11T03:35:33;0.20;99.90
6764;DHT22;47432;48.760;9.178;2023-02-11T03:38:08;0.30;99.90
6764;DHT22;47432;48.760;9.178;2023-02-11T03:48:24;0.40;99.90
6764;DHT22;47432;48.760;9.178;2023-02-11T03:50:51;0.40;99.90
6764;DHT22;47432;48.760;9.178;2023-02-11T04:00:43;0.30;99.90
6764;DHT22;47432;48.760;9.178;2023-02-11T04:10:28;0.30;99.90
6764;DHT22;47432;48.760;9.178;2023-02-11T04:22:37;0.50;99.90
6764;DHT22;47432;48.760;9.178;2023-02-11T04:54:16;1.20;99.90
6764;DHT22;47432;48.760;9.178;2023-02-11T05:01:38;1.30;99.90
6764;DHT22;47432;48.760;9.178;2023-02-11T05:48:04;2.30;99.90
6764;DHT22;47432;48.760;9.178;2023-02-11T06:00:18;2.10;99.90
6764;DHT22;47432;48.760;9.178;2023-02-11T06:22:22;2.20;99.90
6764;DHT22;47432;48.760;9.178;2023-02-11T06:51:41;2.60;99.90
6764;DHT22;47432;48.760;9.178;2023-02-11T07:03:54;2.80;99.90
6764;DHT22;47432;48.760;9.178;2023-02-11T07:06:22;2.90;99.90
6764;DHT22;47432;48.760;9.178;2023-02-11T07:30:55;2.70;99.90
6764;DHT22;47432;48.760;9.178;2023-02-11T07:33:21;2.90;99.90
6764;DHT22;47432;48.760;9.178;2023-02-11T07:38:15;3.00;99.90
6764;DHT22;47432;48.760;9.178;2023-02-11T07:55:24;3.40;99.90
6764;DHT22;47432;48.760;9.178;2023-02-11T08:00:16;3.60;99.90
6764;DHT22;47432;48.760;9.178;2023-02-11T08:22:14;4.00;99.90
6764;DHT22;47432;48.760;9.178;2023-02-11T09:08:46;5.20;99.90
6764;DHT22;47432;48.760;9.178;2023-02-11T09:11:16;5.20;99.90
6764;DHT22;47432;48.760;9.178;2023-02-11T09:13:45;5.20;99.90
6764;DHT22;47432;48.760;9.178;2023-02-11T09:16:22;5.40;99.90
6764;DHT22;47432;48.760;9.178;2023-02-11T09:21:22;5.60;99.90
6764;DHT22;47432;48.760;9.178;2023-02-11T09:26:23;5.90;99.90
6764;DHT22;47432;48.760;9.178;2023-02-11T09:31:29;6.00;99.90
6764;DHT22;47432;48.760;9.178;2023-02-11T09:39:06;6.00;99.90
6764;DHT22;47432;48.760;9.178;2023-02-11T09:41:58;6.00;99.90
6764;DHT22;47432;48.760;9.178;2023-02-11T09:52:25;6.10;99.90
6764;DHT22;47432;48.760;9.178;2023-02-11T09:55:02;6.20;99.90
6764;DHT22;47432;48.760;9.178;2023-02-11T09:57:32;6.20;99.90
6764;DHT22;47432;48.760;9.178;2023-02-11T10:00:01;6.40;99.90
6764;DHT22;47432;48.760;9.178;2023-02-11T10:05:52;6.60;99.90
6764;DHT22;47432;48.760;9.178;2023-02-11T10:23:21;6.90;99.90
6764;DHT22;47432;48.760;9.178;2023-02-11T10:25:52;7.10;99.90
6764;DHT22;47432;48.760;9.178;2023-02-11T10:31:01;7.30;99.90
6764;DHT22;47432;48.760;9.178;2023-02-11T10:41:59;7.40;99.90
6764;DHT22;47432;48.760;9.178;2023-02-11T10:47:14;7.70;99.90
6764;DHT22;47432;48.760;9.178;2023-02-11T10:54:58;7.60;99.90
6764;DHT22;47432;48.760;9.178;2023-02-11T11:08:17;7.40;99.90
6764;DHT22;47432;48.760;9.178;2023-02-11T11:11:00;7.50;99.90
6764;DHT22;47432;48.760;9.178;2023-02-11T11:26:18;7.80;99.90
6764;DHT22;47432;48.760;9.178;2023-02-11T11:29:06;7.80;99.90
6764;DHT22;47432;48.760;9.178;2023-02-11T11:31:45;7.90;99.90
6764;DHT22;47432;48.760;9.178;2023-02-11T11:34:26;7.80;99.90
6764;DHT22;47432;48.760;9.178;2023-02-11T11:39:29;8.10;99.90
6764;DHT22;47432;48.760;9.178;2023-02-11T11:42:19;8.20;99.90
6764;DHT22;47432;48.760;9.178;2023-02-11T11:45:02;8.10;99.90
6764;DHT22;47432;48.760;9.178;2023-02-11T11:48:11;8.00;99.90
6764;DHT22;47432;48.760;9.178;2023-02-11T11:50:51;8.00;99.90
6764;DHT22;47432;48.760;9.178;2023-02-11T12:04:39;8.80;99.90
6764;DHT22;47432;48.760;9.178;2023-02-11T12:07:20;9.20;99.90
6764;DHT22;47432;48.760;9.178;2023-02-11T12:33:06;10.10;99.90
6764;DHT22;47432;48.760;9.178;2023-02-11T12:41:51;10.10;99.90
6764;DHT22;47432;48.760;9.178;2023-02-11T12:56:59;10.60;99.90
6764;DHT22;47432;48.760;9.178;2023-02-11T12:59:54;10.60;99.90
6764;DHT22;47432;48.760;9.178;2023-02-11T13:02:38;10.40;99.90
6764;DHT22;47432;48.760;9.178;2023-02-11T13:05:42;10.70;99.90
6764;DHT22;47432;48.760;9.178;2023-02-11T13:08:32;11.00;99.90
6764;DHT22;47432;48.760;9.178;2023-02-11T13:11:11;11.10;99.90
6764;DHT22;47432;48.760;9.178;2023-02-11T13:14:39;10.80;99.90
6764;DHT22;47432;48.760;9.178;2023-02-11T13:19:36;11.50;99.90
6764;DHT22;47432;48.760;9.178;2023-02-11T13:22:23;11.70;99.90
6764;DHT22;47432;48.760;9.178;2023-02-11T13:25:14;12.30;99.90
6764;DHT22;47432;48.760;9.178;2023-02-11T13:30:36;11.70;99.90
6764;DHT22;47432;48.760;9.178;2023-02-11T13:38:34;10.60;99.90
6764;DHT22;47432;48.760;9.178;2023-02-11T13:41:29;10.70;99.90
6764;DHT22;47432;48.760;9.178;2023-02-11T13:54:41;10.10;99.90
6764;DHT22;47432;48.760;9.178;2023-02-11T13:59:53;10.90;99.90
6764;DHT22;47432;48.760;9.178;2023-02-11T14:02:34;10.80;99.90
6764;DHT22;47432;48.760;9.178;2023-02-11T14:13:33;10.40;99.90
6764;DHT22;47432;48.760;9.178;2023-02-11T14:16:14;10.20;99.90
6764;DHT22;47432;48.760;9.178;2023-02-11T14:29:15;10.60;99.90
6764;DHT22;47432;48.760;9.178;2023-02-11T14:34:52;10.30;99.90
6764;DHT22;47432;48.760;9.178;2023-02-11T14:38:11;10.10;99.90
6764;DHT22;47432;48.760;9.178;2023-02-11T14:43:42;10.00;99.90
6764;DHT22;47432;48.760;9.178;2023-02-11T14:46:17;9.90;99.90
6764;DHT22;47432;48.760;9.178;2023-02-11T14:48:47;9.70;99.90
6764;DHT22;47432;48.760;9.178;2023-02-11T14:51:26;9.70;99.90
6764;DHT22;47432;48.760;9.178;2023-02-11T14:53:57;9.50;99.90
6764;DHT22;47432;48.760;9.178;2023-02-11T14:56:30;9.30;99.90
6764;DHT22;47432;48.760;9.178;2023-02-11T14:58:56;9.50;99.90
6764;DHT22;47432;48.760;9.178;2023-02-11T15:01:32;9.50;99.90
6764;DHT22;47432;48.760;9.178;2023-02-11T15:04:00;9.50;99.90
6764;DHT22;47432;48.760;9.178;2023-02-11T15:06:40;9.50;99.90
6764;DHT22;47432;48.760;9.178;2023-02-11T15:09:36;9.60;99.90
6764;DHT22;47432;48.760;9.178;2023-02-11T15:12:26;9.60;99.90
6764;DHT22;47432;48.760;9.178;2023-02-11T15:14:55;9.60;99.90
6764;DHT22;47432;48.760;9.178;2023-02-11T15:17:29;9.60;99.90
6764;DHT22;47432;48.760;9.178;2023-02-11T15:19:59;9.50;99.90
6764;DHT22;47432;48.760;9.178;2023-02-11T15:22:28;9.40;99.90
6764;DHT22;47432;48.760;9.178;2023-02-11T15:27:42;9.20;99.90
6764;DHT22;47432;48.760;9.178;2023-02-11T15:30:34;8.90;99.90
6764;DHT22;47432;48.760;9.178;2023-02-11T15:33:02;8.80;99.90
6764;DHT22;47432;48.760;9.178;2023-02-11T15:35:35;8.80;99.90
6764;DHT22;47432;48.760;9.178;2023-02-11T15:38:04;8.70;99.90
6764;DHT22;47432;48.760;9.178;2023-02-11T15:40:36;8.60;99.90
6764;DHT22;47432;48.760;9.178;2023-02-11T15:43:09;8.50;99.90
6764;DHT22;47432;48.760;9.178;2023-02-11T15:45:41;8.40;99.90
6764;DHT22;47432;48.760;9.178;2023-02-11T15:48:20;8.20;99.90
6764;DHT22;47432;48.760;9.178;2023-02-11T15:50:52;8.10;99.90
6764;DHT22;47432;48.760;9.178;2023-02-11T15:56:18;7.90;99.90
6764;DHT22;47432;48.760;9.178;2023-02-11T15:58:52;7.90;99.90
6764;DHT22;47432;48.760;9.178;2023-02-11T16:01:31;8.00;99.90
6764;DHT22;47432;48.760;9.178;2023-02-11T16:06:29;8.00;99.90
6764;DHT22;47432;48.760;9.178;2023-02-11T16:09:05;7.90;99.90
6764;DHT22;47432;48.760;9.178;2023-02-11T16:19:40;7.60;99.90
6764;DHT22;47432;48.760;9.178;2023-02-11T16:22:10;7.60;99.90
6764;DHT22;47432;48.760;9.178;2023-02-11T16:24:40;7.60;99.90
6764;DHT22;47432;48.760;9.178;2023-02-11T16:27:19;7.60;99.90
6764;DHT22;47432;48.760;9.178;2023-02-11T16:29:47;7.60;99.90
6764;DHT22;47432;48.760;9.178;2023-02-11T16:34:44;7.50;99.90
6764;DHT22;47432;48.760;9.178;2023-02-11T16:37:11;7.50;99.90
6764;DHT22;47432;48.760;9.178;2023-02-11T16:39:37;7.50;99.90
6764;DHT22;47432;48.760;9.178;2023-02-11T16:42:03;7.50;99.90
6764;DHT22;47432;48.760;9.178;2023-02-11T16:44:31;7.50;99.90
6764;DHT22;47432;48.760;9.178;2023-02-11T16:46:58;7.60;99.90
6764;DHT22;47432;48.760;9.178;2023-02-11T16:49:27;7.60;99.90
6764;DHT22;47432;48.760;9.178;2023-02-11T16:51:59;7.70;99.90
6764;DHT22;47432;48.760;9.178;2023-02-11T16:54:27;7.40;99.90
6764;DHT22;47432;48.760;9.178;2023-02-11T16:56:54;7.50;99.90
6764;DHT22;47432;48.760;9.178;2023-02-11T16:59:25;7.40;99.90
6764;DHT22;47432;48.760;9.178;2023-02-11T17:01:52;7.50;99.90
6764;DHT22;47432;48.760;9.178;2023-02-11T17:04:19;7.50;99.90
6764;DHT22;47432;48.760;9.178;2023-02-11T17:06:51;7.40;99.90
6764;DHT22;47432;48.760;9.178;2023-02-11T17:09:22;7.40;99.90
6764;DHT22;47432;48.760;9.178;2023-02-11T17:11:54;7.40;99.90
6764;DHT22;47432;48.760;9.178;2023-02-11T17:14:20;7.20;99.90
6764;DHT22;47432;48.760;9.178;2023-02-11T17:16:49;7.30;99.90
6764;DHT22;47432;48.760;9.178;2023-02-11T17:19:18;7.30;99.90
6764;DHT22;47432;48.760;9.178;2023-02-11T17:21:47;7.30;99.90
6764;DHT22;47432;48.760;9.178;2023-02-11T17:24:15;7.40;99.90
6764;DHT22;47432;48.760;9.178;2023-02-11T17:26:44;7.30;99.90
6764;DHT22;47432;48.760;9.178;2023-02-11T17:29:14;7.40;99.90
6764;DHT22;47432;48.760;9.178;2023-02-11T17:31:41;7.40;99.90
6764;DHT22;47432;48.760;9.178;2023-02-11T17:34:07;7.40;99.90
6764;DHT22;47432;48.760;9.178;2023-02-11T17:36:33;7.30;99.90
6764;DHT22;47432;48.760;9.178;2023-02-11T17:38:59;7.10;99.90
6764;DHT22;47432;48.760;9.178;2023-02-11T17:41:26;6.80;99.90
6764;DHT22;47432;48.760;9.178;2023-02-11T17:43:52;7.00;99.90
6764;DHT22;47432;48.760;9.178;2023-02-11T17:46:18;6.80;99.90
6764;DHT22;47432;48.760;9.178;2023-02-11T17:48:44;6.60;99.90
6764;DHT22;47432;48.760;9.178;2023-02-11T17:51:38;6.90;99.90
6764;DHT22;47432;48.760;9.178;2023-02-11T17:56:37;6.80;99.90
6764;DHT22;47432;48.760;9.178;2023-02-11T17:59:03;7.00;99.90
6764;DHT22;47432;48.760;9.178;2023-02-11T18:06:26;7.20;99.90
6764;DHT22;47432;48.760;9.178;2023-02-11T18:08:56;7.20;99.90
6764;DHT22;47432;48.760;9.178;2023-02-11T18:13:52;7.30;99.90
6764;DHT22;47432;48.760;9.178;2023-02-11T18:16:22;7.30;99.90
6764;DHT22;47432;48.760;9.178;2023-02-11T18:18:50;7.00;99.90
6764;DHT22;47432;48.760;9.178;2023-02-11T18:21:20;6.80;99.90
6764;DHT22;47432;48.760;9.178;2023-02-11T18:23:47;6.90;99.90
6764;DHT22;47432;48.760;9.178;2023-02-11T18:26:17;7.00;99.90
6764;DHT22;47432;48.760;9.178;2023-02-11T18:31:11;7.00;99.90
6764;DHT22;47432;48.760;9.178;2023-02-11T18:33:37;7.00;99.90
6764;DHT22;47432;48.760;9.178;2023-02-11T18:36:07;7.00;99.90
6764;DHT22;47432;48.760;9.178;2023-02-11T18:38:35;7.00;99.90
6764;DHT22;47432;48.760;9.178;2023-02-11T18:41:04;6.90;99.90
6764;DHT22;47432;48.760;9.178;2023-02-11T18:43:33;6.90;99.90
6764;DHT22;47432;48.760;9.178;2023-02-11T18:46:05;6.90;99.90
6764;DHT22;47432;48.760;9.178;2023-02-11T18:48:32;6.90;99.90
6764;DHT22;47432;48.760;9.178;2023-02-11T18:50:58;6.90;99.90
6764;DHT22;47432;48.760;9.178;2023-02-11T18:53:23;6.90;99.90
6764;DHT22;47432;48.760;9.178;2023-02-11T18:55:54;7.00;99.90
6764;DHT22;47432;48.760;9.178;2023-02-11T18:58:20;6.90;99.90
6764;DHT22;47432;48.760;9.178;2023-02-11T19:00:47;6.90;99.90
6764;DHT22;47432;48.760;9.178;2023-02-11T19:03:16;6.80;99.90
6764;DHT22;47432;48.760;9.178;2023-02-11T19:05:45;6.70;99.90
6764;DHT22;47432;48.760;9.178;2023-02-11T19:08:12;6.80;99.90
6764;DHT22;47432;48.760;9.178;2023-02-11T19:10:45;6.80;99.90
6764;DHT22;47432;48.760;9.178;2023-02-11T19:13:12;6.70;99.90
6764;DHT22;47432;48.760;9.178;2023-02-11T19:15:42;6.80;99.90
6764;DHT22;47432;48.760;9.178;2023-02-11T19:18:11;6.80;99.90
6764;DHT22;47432;48.760;9.178;2023-02-11T19:20:43;6.80;99.90
6764;DHT22;47432;48.760;9.178;2023-02-11T19:23:09;6.70;99.90
6764;DHT22;47432;48.760;9.178;2023-02-11T19:25:44;6.80;99.90
6764;DHT22;47432;48.760;9.178;2023-02-11T19:28:13;6.80;99.90
6764;DHT22;47432;48.760;9.178;2023-02-11T19:30:40;6.90;99.90
6764;DHT22;47432;48.760;9.178;2023-02-11T19:33:05;6.90;99.90
6764;DHT22;47432;48.760;9.178;2023-02-11T19:35:33;6.80;99.90
6764;DHT22;47432;48.760;9.178;2023-02-11T19:38:04;6.70;99.90
6764;DHT22;47432;48.760;9.178;2023-02-11T19:42:58;6.70;99.90
6764;DHT22;47432;48.760;9.178;2023-02-11T19:45:24;6.50;99.90
6764;DHT22;47432;48.760;9.178;2023-02-11T19:47:54;6.70;99.90
6764;DHT22;47432;48.760;9.178;2023-02-11T19:50:20;6.70;99.90
6764;DHT22;47432;48.760;9.178;2023-02-11T19:52:46;6.60;99.90
6764;DHT22;47432;48.760;9.178;2023-02-11T19:55:12;6.40;99.90
6764;DHT22;47432;48.760;9.178;2023-02-11T19:57:38;6.70;99.90
6764;DHT22;47432;48.760;9.178;2023-02-11T20:00:04;6.70;99.90
6764;DHT22;47432;48.760;9.178;2023-02-11T20:02:30;6.70;99.90
6764;DHT22;47432;48.760;9.178;2023-02-11T20:04:56;6.60;99.90
6764;DHT22;47432;48.760;9.178;2023-02-11T20:07:22;6.60;99.90
6764;DHT22;47432;48.760;9.178;2023-02-11T20:09:48;6.80;99.90
6764;DHT22;47432;48.760;9.178;2023-02-11T20:12:14;6.80;99.90
6764;DHT22;47432;48.760;9.178;2023-02-11T20:14:39;6.80;99.90
6764;DHT22;47432;48.760;9.178;2023-02-11T20:17:05;6.90;99.90
6764;DHT22;47432;48.760;9.178;2023-02-11T20:21:59;6.90;99.90
6764;DHT22;47432;48.760;9.178;2023-02-11T20:24:25;6.80;99.90
6764;DHT22;47432;48.760;9.178;2023-02-11T20:26:51;6.80;99.90
6764;DHT22;47432;48.760;9.178;2023-02-11T20:29:20;6.80;99.90
6764;DHT22;47432;48.760;9.178;2023-02-11T20:31:48;6.80;99.90
6764;DHT22;47432;48.760;9.178;2023-02-11T20:34:14;6.80;99.90
6764;DHT22;47432;48.760;9.178;2023-02-11T20:36:42;6.60;99.90
6764;DHT22;47432;48.760;9.178;2023-02-11T20:39:16;6.50;99.90
6764;DHT22;47432;48.760;9.178;2023-02-11T20:46:41;6.80;99.90
6764;DHT22;47432;48.760;9.178;2023-02-11T20:51:40;6.60;99.90
6764;DHT22;47432;48.760;9.178;2023-02-11T20:54:17;6.70;99.90
6764;DHT22;47432;48.760;9.178;2023-02-11T20:56:47;6.60;99.90
6764;DHT22;47432;48.760;9.178;2023-02-11T20:59:20;6.50;99.90
6764;DHT22;47432;48.760;9.178;2023-02-11T21:01:48;6.50;99.90
6764;DHT22;47432;48.760;9.178;2023-02-11T21:04:26;6.50;99.90
6764;DHT22;47432;48.760;9.178;2023-02-11T21:06:58;6.30;99.90
6764;DHT22;47432;48.760;9.178;2023-02-11T21:09:28;6.50;99.90
6764;DHT22;47432;48.760;9.178;2023-02-11T21:11:55;6.50;99.90
6764;DHT22;47432;48.760;9.178;2023-02-11T21:14:25;6.40;99.90
6764;DHT22;47432;48.760;9.178;2023-02-11T21:16:52;6.50;99.90
6764;DHT22;47432;48.760;9.178;2023-02-11T21:19:17;6.50;99.90
6764;DHT22;47432;48.760;9.178;2023-02-11T21:21:44;6.60;99.90
6764;DHT22;47432;48.760;9.178;2023-02-11T21:24:10;6.70;99.90
6764;DHT22;47432;48.760;9.178;2023-02-11T21:26:38;6.80;99.90
6764;DHT22;47432;48.760;9.178;2023-02-11T21:29:07;6.70;99.90
6764;DHT22;47432;48.760;9.178;2023-02-11T21:31:34;6.80;99.90
6764;DHT22;47432;48.760;9.178;2023-02-11T21:34:04;6.70;99.90
6764;DHT22;47432;48.760;9.178;2023-02-11T21:36:30;6.60;99.90
6764;DHT22;47432;48.760;9.178;2023-02-11T21:38:56;6.60;99.90
6764;DHT22;47432;48.760;9.178;2023-02-11T21:41:26;6.70;99.90
6764;DHT22;47432;48.760;9.178;2023-02-11T21:43:51;6.70;99.90
6764;DHT22;47432;48.760;9.178;2023-02-11T21:46:21;6.70;99.90
6764;DHT22;47432;48.760;9.178;2023-02-11T21:48:47;6.70;99.90
6764;DHT22;47432;48.760;9.178;2023-02-11T21:51:16;6.60;99.90
6764;DHT22;47432;48.760;9.178;2023-02-11T21:53:46;6.60;99.90
6764;DHT22;47432;48.760;9.178;2023-02-11T21:56:15;6.60;99.90
6764;DHT22;47432;48.760;9.178;2023-02-11T22:01:22;6.50;99.90
6764;DHT22;47432;48.760;9.178;2023-02-11T22:03:50;6.50;99.90
6764;DHT22;47432;48.760;9.178;2023-02-11T22:06:24;6.60;99.90
6764;DHT22;47432;48.760;9.178;2023-02-11T22:08:53;6.60;99.90
6764;DHT22;47432;48.760;9.178;2023-02-11T22:11:21;6.60;99.90
6764;DHT22;47432;48.760;9.178;2023-02-11T22:13:52;6.40;99.90
6764;DHT22;47432;48.760;9.178;2023-02-11T22:16:22;6.30;99.90
6764;DHT22;47432;48.760;9.178;2023-02-11T22:21:18;6.50;99.90
6764;DHT22;47432;48.760;9.178;2023-02-11T22:23:45;6.60;99.90
6764;DHT22;47432;48.760;9.178;2023-02-11T22:26:17;6.50;99.90
6764;DHT22;47432;48.760;9.178;2023-02-11T22:28:45;6.60;99.90
6764;DHT22;47432;48.760;9.178;2023-02-11T22:31:14;6.70;99.90
6764;DHT22;47432;48.760;9.178;2023-02-11T22:33:41;6.70;99.90
6764;DHT22;47432;48.760;9.178;2023-02-11T22:36:15;6.60;99.90
6764;DHT22;47432;48.760;9.178;2023-02-11T22:38:43;6.40;99.90
6764;DHT22;47432;48.760;9.178;2023-02-11T22:43:42;6.60;99.90
6764;DHT22;47432;48.760;9.178;2023-02-11T22:46:13;6.70;99.90
6764;DHT22;47432;48.760;9.178;2023-02-11T22:53:40;6.90;99.90
6764;DHT22;47432;48.760;9.178;2023-02-11T23:16:07;7.20;99.90
